Terminal Aerodrome Forecast
Issued by NWS Sterling, VA

Current Version | Previous Version | Text Only | Print | Product List | Glossary Off
Versions: 1 2 3 4 5 6 7 8 9 10 11 12 13 14 15 16 17 18 19 20 21 22 23 24 25 26

000
FTUS41 KLWX 231433 AAA
TAFIAD
TAF AMD
KIAD 231433Z 2315/2418 14008KT P6SM FEW070 BKN250
     FM231700 13010G17KT P6SM FEW060 BKN200
     FM240300 13006KT P6SM BKN100
     FM240900 11007KT 6SM -RA OVC030=

USA.gov is the U.S. government's official web portal to all federal, state and local government web resources and services.